First Ferry Vi — VRS4293 — position and weather

sailwx.info

Track history (hours):
 
Tides and Currents Weather Stations Pressure Air Temp Water Temp Dewpoint Dewpoint Depression Visibility Wind Speed Wind Dir Waves Ship Positions

First Ferry Vi

Last reported at 2016-May-28 01:33 UTC. Time now 2016-May-28 02:06 UTC.
Position N 22°17' E 114°10'.

Length 36 m; draft 1.8 m.

Type: Tug. MMSI: 477995028.

Date/timePositionNaut miles runAvg speedWind from/ knotsBaromVisibWave heightAir tempDewpointWater temp
2016-May-28 01:33N 22°17' E 114°10'2 2.3
2016-May-28 00:33N 22°19' E 114°09'5 3.8
2016-May-27 23:16N 22°16' E 114°05'5 0.6
2016-May-27 15:33N 22°17' E 114°10'4 2.9
2016-May-27 14:16N 22°17' E 114°06'5 7.8
2016-May-27 13:34N 22°18' E 114°11'2 1.9
2016-May-27 12:33N 22°17' E 114°10'4 3.5
2016-May-27 11:31N 22°17' E 114°06'6 6.3
2016-May-27 10:33N 22°19' E 114°12'0 0.0
2016-May-27 09:33N 22°19' E 114°12'0 0.0
2016-May-27 08:33N 22°19' E 114°12'2 1.8
2016-May-27 07:33N 22°17' E 114°11'1 0.5
2016-May-27 05:32N 22°17' E 114°10'0 0.0
2016-May-27 03:33N 22°17' E 114°10'0 0.2
2016-May-27 01:33N 22°17' E 114°10'4 0.3
2016-May-26 11:29N 22°17' E 114°06'1 1.1
2016-May-26 10:17N 22°17' E 114°05'7 9.0
2016-May-26 09:33N 22°18' E 114°12'1 0.7
2016-May-26 08:33N 22°19' E 114°12'0 0.0
2016-May-26 07:33N 22°19' E 114°12'0 0.0
2016-May-26 06:34N 22°19' E 114°12'1 1.3
2016-May-26 05:34N 22°18' E 114°11'7 4.9
2016-May-26 04:06N 22°15' E 114°04'610.1
2016-May-26 03:33N 22°17' E 114°10'0 0.2
2016-May-26 01:33N 22°17' E 114°10'2 2.1
2016-May-26 00:33N 22°19' E 114°09'5 3.9
2016-May-25 23:16N 22°16' E 114°05'5 0.6
2016-May-25 15:33N 22°17' E 114°10'5 3.8
2016-May-25 14:17N 22°17' E 114°05'7 8.9
2016-May-25 13:33N 22°18' E 114°11'2 1.8
2016-May-25 12:34N 22°17' E 114°10'4 3.7
2016-May-25 11:31N 22°17' E 114°06'1 1.2
2016-May-25 10:19N 22°17' E 114°04'810.3
2016-May-25 09:33N 22°19' E 114°12'0 0.2
2016-May-25 08:33N 22°19' E 114°12'0 0.0
2016-May-25 07:33N 22°19' E 114°12'0 0.0
2016-May-25 06:33N 22°19' E 114°12'1 1.5
2016-May-25 05:33N 22°18' E 114°11'1 0.7
2016-May-25 03:33N 22°17' E 114°10'0 0.2
2016-May-25 01:33N 22°17' E 114°10'2 1.7
2016-May-25 00:33N 22°19' E 114°09'5 4.0
2016-May-24 23:17N 22°16' E 114°05'5 0.6
2016-May-24 15:34N 22°18' E 114°09'4 3.1
2016-May-24 14:16N 22°17' E 114°05'4 5.9
2016-May-24 13:33N 22°17' E 114°10'0 0.1
2016-May-24 12:33N 22°17' E 114°10'4 4.2
2016-May-24 11:32N 22°16' E 114°05'1 0.5
2016-May-24 10:16N 22°17' E 114°05'4 6.2
2016-May-24 09:34N 22°17' E 114°10'3 2.5
2016-May-24 08:33N 22°19' E 114°12'0 0.0
2016-May-24 07:33N 22°19' E 114°12'0 0.0
2016-May-24 06:33N 22°19' E 114°12'1 1.1
2016-May-24 05:33N 22°18' E 114°12'2 1.0
2016-May-24 03:33N 22°17' E 114°10'0 0.2
2016-May-24 01:33N 22°17' E 114°10'2 1.8
2016-May-24 00:33N 22°19' E 114°09'5 4.3
2016-May-23 23:19N 22°16' E 114°04'5 0.7
2016-May-23 15:33N 22°17' E 114°10'4 3.5
2016-May-23 14:17N 22°17' E 114°05'6 8.4
2016-May-23 13:33N 22°18' E 114°11'2 1.9
2016-May-23 12:33N 22°17' E 114°09'4 3.6
2016-May-23 11:31N 22°17' E 114°05'1 0.5
2016-May-23 10:16N 22°17' E 114°06'6 8.2
2016-May-23 09:33N 22°18' E 114°12'1 0.8
2016-May-23 08:33N 22°19' E 114°12'0 0.0
2016-May-23 07:33N 22°19' E 114°12'0 0.0
2016-May-23 06:33N 22°19' E 114°12'2 1.8
2016-May-23 05:33N 22°17' E 114°11'1 0.5
2016-May-23 03:33N 22°17' E 114°10'0 0.2
2016-May-23 01:33N 22°17' E 114°10'2 1.8
2016-May-23 00:33N 22°19' E 114°09'7 5.7
2016-May-22 23:21N 22°15' E 114°03'6 0.8
2016-May-22 15:33N 22°17' E 114°10'0 0.0
2016-May-22 13:34N 22°17' E 114°10'7 4.9
2016-May-22 12:03N 22°16' E 114°02'714.6
2016-May-22 11:33N 22°17' E 114°10'0 0.1
2016-May-22 09:33N 22°17' E 114°10'7 4.7
2016-May-22 08:04N 22°16' E 114°02'713.2
2016-May-22 07:33N 22°17' E 114°10'0 0.0
2016-May-22 05:34N 22°17' E 114°10'4 3.5
2016-May-22 04:18N 22°17' E 114°05'5 4.9
2016-May-22 03:22N 22°20' E 114°09'0 0.0
2016-May-22 02:33N 22°20' E 114°09'0 0.0
2016-May-22 01:34N 22°20' E 114°09'0 0.0
2016-May-22 00:32N 22°20' E 114°09'2 2.3
2016-May-21 23:33N 22°17' E 114°09'0 0.0
2016-May-21 16:33N 22°18' E 114°09'0 0.2
2016-May-21 14:34N 22°17' E 114°10'3 2.9
2016-May-21 13:33N 22°17' E 114°06'4 2.0
2016-May-21 11:26N 22°16' E 114°02'910.5
2016-May-21 10:33N 22°18' E 114°12'1 0.7
2016-May-21 09:33N 22°19' E 114°12'3 3.3
2016-May-21 08:34N 22°18' E 114°09'4 4.1
2016-May-21 07:29N 22°17' E 114°04'4 4.5
2016-May-21 06:33N 22°18' E 114°08'2 1.8
2016-May-21 05:23N 22°17' E 114°06'3 4.2
2016-May-21 04:33N 22°17' E 114°10'0 0.1
2016-May-21 02:33N 22°17' E 114°10'3 2.5
2016-May-21 01:33N 22°20' E 114°09'2 1.2
2016-May-20 23:33N 22°17' E 114°10'0 0.0
2016-May-20 16:33N 22°17' E 114°10'6 4.5
2016-May-20 15:07N 22°16' E 114°03'611.5
2016-May-20 14:33N 22°17' E 114°10'0 0.0
2016-May-20 13:33N 22°17' E 114°10'6 4.7
2016-May-20 12:21N 22°15' E 114°04'8 9.5
2016-May-20 11:33N 22°18' E 114°12'1 1.3
2016-May-20 10:33N 22°17' E 114°10'2 2.0
2016-May-20 09:33N 22°19' E 114°12'0 0.0
2016-May-20 08:33N 22°19' E 114°12'0 0.0
2016-May-20 07:33N 22°19' E 114°12'1 1.1
2016-May-20 06:34N 22°18' E 114°12'2 0.9
2016-May-20 04:32N 22°17' E 114°10'0 0.0
2016-May-20 02:33N 22°17' E 114°10'2 2.3
2016-May-20 01:33N 22°18' E 114°12'2 1.1
2016-May-19 23:33N 22°17' E 114°10'0 0.0
2016-May-19 16:33N 22°18' E 114°09'7 4.5
2016-May-19 15:07N 22°16' E 114°03'711.9
2016-May-19 14:34N 22°17' E 114°10'3 2.9
2016-May-19 13:33N 22°17' E 114°06'4 2.0
2016-May-19 11:26N 22°16' E 114°02'7 7.8
2016-May-19 10:33N 22°19' E 114°09'1 1.2
2016-May-19 09:33N 22°20' E 114°09'0 0.0
2016-May-19 08:28N 22°20' E 114°09'0 0.0
2016-May-19 07:32N 22°20' E 114°09'1 1.1
2016-May-19 06:33N 22°19' E 114°09'1 0.7
2016-May-19 04:33N 22°17' E 114°10'0 0.0
2016-May-19 02:33N 22°17' E 114°10'2 2.4
2016-May-19 01:32N 22°20' E 114°09'3 1.3
2016-May-18 23:33N 22°17' E 114°10'0 0.0
2016-May-18 16:33N 22°17' E 114°10'5 3.1
2016-May-18 15:03N 22°17' E 114°05'5 9.4
2016-May-18 14:33N 22°17' E 114°10'3 3.3
2016-May-18 13:33N 22°17' E 114°06'3 1.3
2016-May-18 11:23N 22°16' E 114°03'6 7.1
2016-May-18 10:33N 22°18' E 114°09'1 1.2
2016-May-18 09:26N 22°20' E 114°09'0 0.0
2016-May-18 08:25N 22°20' E 114°09'0 0.0
2016-May-18 07:31N 22°20' E 114°09'1 1.0
2016-May-18 06:33N 22°19' E 114°09'2 0.8
2016-May-18 04:33N 22°17' E 114°10'0 0.0
2016-May-18 02:33N 22°17' E 114°10'3 2.6
2016-May-18 01:33N 22°19' E 114°12'  
Track history (hours):
 
Tides and Currents Weather Stations Pressure Air Temp Water Temp Dewpoint Dewpoint Depression Visibility Wind Speed Wind Dir Waves Ship Positions

First Ferry Vi

Last reported at 2016-May-28 01:33 UTC. Time now 2016-May-28 02:06 UTC.
Position N 22°17' E 114°10'.

Length 36 m; draft 1.8 m.

Type: Tug. MMSI: 477995028.

Date/timePositionNaut miles runAvg speedWind from/ knotsBaromVisibWave heightAir tempDewpointWater temp
2016-May-28 01:33N 22°17' E 114°10'2 2.3
2016-May-28 00:33N 22°19' E 114°09'5 3.8
2016-May-27 23:16N 22°16' E 114°05'5 0.6
2016-May-27 15:33N 22°17' E 114°10'4 2.9
2016-May-27 14:16N 22°17' E 114°06'5 7.8
2016-May-27 13:34N 22°18' E 114°11'2 1.9
2016-May-27 12:33N 22°17' E 114°10'4 3.5
2016-May-27 11:31N 22°17' E 114°06'6 6.3
2016-May-27 10:33N 22°19' E 114°12'0 0.0
2016-May-27 09:33N 22°19' E 114°12'0 0.0
2016-May-27 08:33N 22°19' E 114°12'2 1.8
2016-May-27 07:33N 22°17' E 114°11'1 0.5
2016-May-27 05:32N 22°17' E 114°10'0 0.0
2016-May-27 03:33N 22°17' E 114°10'0 0.2
2016-May-27 01:33N 22°17' E 114°10'4 0.3
2016-May-26 11:29N 22°17' E 114°06'1 1.1
2016-May-26 10:17N 22°17' E 114°05'7 9.0
2016-May-26 09:33N 22°18' E 114°12'1 0.7
2016-May-26 08:33N 22°19' E 114°12'0 0.0
2016-May-26 07:33N 22°19' E 114°12'0 0.0
2016-May-26 06:34N 22°19' E 114°12'1 1.3
2016-May-26 05:34N 22°18' E 114°11'7 4.9
2016-May-26 04:06N 22°15' E 114°04'610.1
2016-May-26 03:33N 22°17' E 114°10'0 0.2
2016-May-26 01:33N 22°17' E 114°10'2 2.1
2016-May-26 00:33N 22°19' E 114°09'5 3.9
2016-May-25 23:16N 22°16' E 114°05'5 0.6
2016-May-25 15:33N 22°17' E 114°10'5 3.8
2016-May-25 14:17N 22°17' E 114°05'7 8.9
2016-May-25 13:33N 22°18' E 114°11'2 1.8
2016-May-25 12:34N 22°17' E 114°10'4 3.7
2016-May-25 11:31N 22°17' E 114°06'1 1.2
2016-May-25 10:19N 22°17' E 114°04'810.3
2016-May-25 09:33N 22°19' E 114°12'0 0.2
2016-May-25 08:33N 22°19' E 114°12'0 0.0
2016-May-25 07:33N 22°19' E 114°12'0 0.0
2016-May-25 06:33N 22°19' E 114°12'1 1.5
2016-May-25 05:33N 22°18' E 114°11'1 0.7
2016-May-25 03:33N 22°17' E 114°10'0 0.2
2016-May-25 01:33N 22°17' E 114°10'2 1.7
2016-May-25 00:33N 22°19' E 114°09'5 4.0
2016-May-24 23:17N 22°16' E 114°05'5 0.6
2016-May-24 15:34N 22°18' E 114°09'4 3.1
2016-May-24 14:16N 22°17' E 114°05'4 5.9
2016-May-24 13:33N 22°17' E 114°10'0 0.1
2016-May-24 12:33N 22°17' E 114°10'4 4.2
2016-May-24 11:32N 22°16' E 114°05'1 0.5
2016-May-24 10:16N 22°17' E 114°05'4 6.2
2016-May-24 09:34N 22°17' E 114°10'3 2.5
2016-May-24 08:33N 22°19' E 114°12'0 0.0
2016-May-24 07:33N 22°19' E 114°12'0 0.0
2016-May-24 06:33N 22°19' E 114°12'1 1.1
2016-May-24 05:33N 22°18' E 114°12'2 1.0
2016-May-24 03:33N 22°17' E 114°10'0 0.2
2016-May-24 01:33N 22°17' E 114°10'2 1.8
2016-May-24 00:33N 22°19' E 114°09'5 4.3
2016-May-23 23:19N 22°16' E 114°04'5 0.7
2016-May-23 15:33N 22°17' E 114°10'4 3.5
2016-May-23 14:17N 22°17' E 114°05'6 8.4
2016-May-23 13:33N 22°18' E 114°11'2 1.9
2016-May-23 12:33N 22°17' E 114°09'4 3.6
2016-May-23 11:31N 22°17' E 114°05'1 0.5
2016-May-23 10:16N 22°17' E 114°06'6 8.2
2016-May-23 09:33N 22°18' E 114°12'1 0.8
2016-May-23 08:33N 22°19' E 114°12'0 0.0
2016-May-23 07:33N 22°19' E 114°12'0 0.0
2016-May-23 06:33N 22°19' E 114°12'2 1.8
2016-May-23 05:33N 22°17' E 114°11'1 0.5
2016-May-23 03:33N 22°17' E 114°10'0 0.2
2016-May-23 01:33N 22°17' E 114°10'2 1.8
2016-May-23 00:33N 22°19' E 114°09'7 5.7
2016-May-22 23:21N 22°15' E 114°03'6 0.8
2016-May-22 15:33N 22°17' E 114°10'0 0.0
2016-May-22 13:34N 22°17' E 114°10'7 4.9
2016-May-22 12:03N 22°16' E 114°02'714.6
2016-May-22 11:33N 22°17' E 114°10'0 0.1
2016-May-22 09:33N 22°17' E 114°10'7 4.7
2016-May-22 08:04N 22°16' E 114°02'713.2
2016-May-22 07:33N 22°17' E 114°10'0 0.0
2016-May-22 05:34N 22°17' E 114°10'4 3.5
2016-May-22 04:18N 22°17' E 114°05'5 4.9
2016-May-22 03:22N 22°20' E 114°09'0 0.0
2016-May-22 02:33N 22°20' E 114°09'0 0.0
2016-May-22 01:34N 22°20' E 114°09'0 0.0
2016-May-22 00:32N 22°20' E 114°09'2 2.3
2016-May-21 23:33N 22°17' E 114°09'0 0.0
2016-May-21 16:33N 22°18' E 114°09'0 0.2
2016-May-21 14:34N 22°17' E 114°10'3 2.9
2016-May-21 13:33N 22°17' E 114°06'4 2.0
2016-May-21 11:26N 22°16' E 114°02'910.5
2016-May-21 10:33N 22°18' E 114°12'1 0.7
2016-May-21 09:33N 22°19' E 114°12'3 3.3
2016-May-21 08:34N 22°18' E 114°09'4 4.1
2016-May-21 07:29N 22°17' E 114°04'4 4.5
2016-May-21 06:33N 22°18' E 114°08'2 1.8
2016-May-21 05:23N 22°17' E 114°06'3 4.2
2016-May-21 04:33N 22°17' E 114°10'0 0.1
2016-May-21 02:33N 22°17' E 114°10'3 2.5
2016-May-21 01:33N 22°20' E 114°09'2 1.2
2016-May-20 23:33N 22°17' E 114°10'0 0.0
2016-May-20 16:33N 22°17' E 114°10'6 4.5
2016-May-20 15:07N 22°16' E 114°03'611.5
2016-May-20 14:33N 22°17' E 114°10'0 0.0
2016-May-20 13:33N 22°17' E 114°10'6 4.7
2016-May-20 12:21N 22°15' E 114°04'8 9.5
2016-May-20 11:33N 22°18' E 114°12'1 1.3
2016-May-20 10:33N 22°17' E 114°10'2 2.0
2016-May-20 09:33N 22°19' E 114°12'0 0.0
2016-May-20 08:33N 22°19' E 114°12'0 0.0
2016-May-20 07:33N 22°19' E 114°12'1 1.1
2016-May-20 06:34N 22°18' E 114°12'2 0.9
2016-May-20 04:32N 22°17' E 114°10'0 0.0
2016-May-20 02:33N 22°17' E 114°10'2 2.3
2016-May-20 01:33N 22°18' E 114°12'2 1.1
2016-May-19 23:33N 22°17' E 114°10'0 0.0
2016-May-19 16:33N 22°18' E 114°09'7 4.5
2016-May-19 15:07N 22°16' E 114°03'711.9
2016-May-19 14:34N 22°17' E 114°10'3 2.9
2016-May-19 13:33N 22°17' E 114°06'4 2.0
2016-May-19 11:26N 22°16' E 114°02'7 7.8
2016-May-19 10:33N 22°19' E 114°09'1 1.2
2016-May-19 09:33N 22°20' E 114°09'0 0.0
2016-May-19 08:28N 22°20' E 114°09'0 0.0
2016-May-19 07:32N 22°20' E 114°09'1 1.1
2016-May-19 06:33N 22°19' E 114°09'1 0.7
2016-May-19 04:33N 22°17' E 114°10'0 0.0
2016-May-19 02:33N 22°17' E 114°10'2 2.4
2016-May-19 01:32N 22°20' E 114°09'3 1.3
2016-May-18 23:33N 22°17' E 114°10'0 0.0
2016-May-18 16:33N 22°17' E 114°10'5 3.1
2016-May-18 15:03N 22°17' E 114°05'5 9.4
2016-May-18 14:33N 22°17' E 114°10'3 3.3
2016-May-18 13:33N 22°17' E 114°06'3 1.3
2016-May-18 11:23N 22°16' E 114°03'6 7.1
2016-May-18 10:33N 22°18' E 114°09'1 1.2
2016-May-18 09:26N 22°20' E 114°09'0 0.0
2016-May-18 08:25N 22°20' E 114°09'0 0.0
2016-May-18 07:31N 22°20' E 114°09'1 1.0
2016-May-18 06:33N 22°19' E 114°09'2 0.8
2016-May-18 04:33N 22°17' E 114°10'0 0.0
2016-May-18 02:33N 22°17' E 114°10'3 2.6
2016-May-18 01:33N 22°19' E 114°12'  

Dump ship's entire track history